^^
Paulen-Weather Station Historical Data
Daily Summary for July 01, 2022 Units:  Metric    English   Both
Daily Weekly Monthly Yearly Custom
  High: Low: Average:
Temperature: 22 °C 15 °C 17.7 °C
Dew Point: 18 °C 13 °C 15.3 °C
Humidity: 96% 62% 86%
Wind Speed: 28km/h 6km/h 14.2km/h
Wind Gust: 26km/h - -
Wind- - SW
Pressure: 1013.85 hPa 1010.19 hPa -
Precipitation: 1.4 mm    
Historical Graphs
 
 
Tabular Data for July 01, 2022
Time Temperature Dew Point Pressure Wind Wind Speed Wind Gust Humidity Rainfall Rate (Hourly) solar
00:04 18 °C 15 °C 1013.04 hPa NNW 6 km/h 6 km/h 81% 0 mm 0 W/m2
00:09 18 °C 15 °C 1013.07 hPa NNW 6 km/h 6 km/h 81% 0 mm 0 W/m2
00:14 18 °C 15 °C 1013.04 hPa N 9 km/h 9 km/h 81% 0 mm 0 W/m2
00:19 18 °C 15 °C 1013.04 hPa N 10 km/h 10 km/h 81% 0 mm 0 W/m2
00:24 18 °C 15 °C 1013 hPa N 8 km/h 8 km/h 82% 0 mm 0 W/m2
00:29 18 °C 15 °C 1013 hPa N 9 km/h 10 km/h 83% 0 mm 0 W/m2
00:34 18 °C 15 °C 1013.07 hPa N 9 km/h 9 km/h 83% 0 mm 0 W/m2
00:39 18 °C 15 °C 1013.07 hPa N 10 km/h 10 km/h 83% 0 mm 0 W/m2
00:44 18 °C 15 °C 1013.07 hPa NNW 9 km/h 10 km/h 83% 0 mm 0 W/m2
00:49 18 °C 15 °C 1013.04 hPa NNW 7 km/h 6 km/h 82% 0 mm 0 W/m2
00:54 18 °C 15 °C 1013.07 hPa NNW 6 km/h 6 km/h 82% 0 mm 0 W/m2
00:59 18 °C 15 °C 1013.04 hPa NNW 6 km/h 6 km/h 82% 0 mm 0 W/m2
01:04 18 °C 14 °C 1013.04 hPa NNW 6 km/h 6 km/h 82% 0 mm 0 W/m2
01:09 17 °C 15 °C 1013 hPa NNW 7 km/h 7 km/h 83% 0 mm 0 W/m2
01:14 17 °C 15 °C 1012.97 hPa N 9 km/h 8 km/h 83% 0 mm 0 W/m2
01:19 17 °C 15 °C 1013.04 hPa NNW 8 km/h 7 km/h 84% 0 mm 0 W/m2
01:24 17 °C 15 °C 1013 hPa NNW 9 km/h 7 km/h 86% 0 mm 0 W/m2
01:29 17 °C 15 °C 1012.94 hPa N 9 km/h 7 km/h 86% 0 mm 0 W/m2
01:34 17 °C 15 °C 1012.94 hPa NNW 8 km/h 7 km/h 85% 0 mm 0 W/m2
01:39 17 °C 14 °C 1012.94 hPa NW 9 km/h 8 km/h 83% 0 mm 0 W/m2
01:44 17 °C 14 °C 1012.94 hPa NNW 9 km/h 9 km/h 79% 0 mm 0 W/m2
01:49 17 °C 14 °C 1013 hPa NNW 8 km/h 7 km/h 78% 0 mm 0 W/m2
01:54 17 °C 14 °C 1013.04 hPa NNW 7 km/h 7 km/h 79% 0 mm 0 W/m2
01:59 17 °C 14 °C 1013.14 hPa NNW 7 km/h 6 km/h 79% 0 mm 0 W/m2
02:04 17 °C 14 °C 1013.17 hPa NNW 6 km/h 6 km/h 80% 0 mm 0 W/m2
02:09 17 °C 14 °C 1013.17 hPa NNW 7 km/h 7 km/h 80% 0 mm 0 W/m2
02:14 17 °C 14 °C 1013.11 hPa NNW 8 km/h 7 km/h 81% 0 mm 0 W/m2
02:19 17 °C 14 °C 1013.07 hPa NNW 7 km/h 7 km/h 81% 0 mm 0 W/m2
02:24 17 °C 14 °C 1013 hPa N 9 km/h 8 km/h 82% 0 mm 0 W/m2
02:29 17 °C 14 °C 1012.87 hPa N 9 km/h 8 km/h 81% 0 mm 0 W/m2
02:34 17 °C 14 °C 1012.84 hPa N 10 km/h 9 km/h 82% 0 mm 0 W/m2
02:39 17 °C 14 °C 1012.87 hPa N 11 km/h 11 km/h 82% 0 mm 0 W/m2
02:44 17 °C 14 °C 1012.84 hPa N 13 km/h 12 km/h 81% 0 mm 0 W/m2
02:49 17 °C 14 °C 1012.8 hPa N 12 km/h 10 km/h 82% 0 mm 0 W/m2
02:54 17 °C 14 °C 1012.7 hPa NNW 9 km/h 8 km/h 83% 0 mm 0 W/m2
02:59 17 °C 14 °C 1012.7 hPa NNW 10 km/h 9 km/h 83% 0 mm 0 W/m2
03:04 17 °C 14 °C 1012.53 hPa NNW 9 km/h 8 km/h 84% 0 mm 0 W/m2
03:09 17 °C 14 °C 1012.5 hPa N 10 km/h 9 km/h 85% 0 mm 0 W/m2
03:14 17 °C 14 °C 1012.39 hPa N 10 km/h 9 km/h 85% 0 mm 0 W/m2
03:19 17 °C 14 °C 1012.39 hPa N 11 km/h 11 km/h 84% 0 mm 0 W/m2
03:24 17 °C 14 °C 1012.36 hPa NNW 10 km/h 10 km/h 83% 0 mm 0 W/m2
03:29 17 °C 13 °C 1012.39 hPa NNW 8 km/h 7 km/h 82% 0 mm 0 W/m2
03:34 17 °C 13 °C 1012.39 hPa NNW 8 km/h 7 km/h 81% 0 mm 0 W/m2
03:39 17 °C 14 °C 1012.43 hPa NNW 7 km/h 8 km/h 82% 0 mm 0 W/m2
03:44 16 °C 13 °C 1012.39 hPa NNW 8 km/h 8 km/h 81% 0 mm 0 W/m2
03:49 16 °C 13 °C 1012.36 hPa NNW 9 km/h 9 km/h 82% 0 mm 0 W/m2
03:54 16 °C 13 °C 1012.39 hPa NNW 9 km/h 8 km/h 81% 0 mm 0 W/m2
03:59 17 °C 13 °C 1012.39 hPa NNW 9 km/h 8 km/h 81% 0 mm 0 W/m2
04:04 16 °C 13 °C 1012.43 hPa NW 10 km/h 11 km/h 81% 0 mm 0 W/m2
04:09 16 °C 13 °C 1012.36 hPa NNW 12 km/h 11 km/h 81% 0 mm 0 W/m2
04:14 16 °C 13 °C 1012.26 hPa NNW 11 km/h 10 km/h 81% 0 mm 0 W/m2
04:19 16 °C 13 °C 1012.26 hPa NNW 11 km/h 10 km/h 82% 0 mm 0 W/m2
04:24 16 °C 13 °C 1012.16 hPa N 9 km/h 9 km/h 83% 0 mm 0 W/m2
04:29 16 °C 13 °C 1012.23 hPa N 12 km/h 11 km/h 82% 0 mm 0 W/m2
04:34 16 °C 13 °C 1012.12 hPa N 15 km/h 13 km/h 81% 0 mm 5 W/m2
04:39 16 °C 13 °C 1012.12 hPa N 13 km/h 13 km/h 81% 0 mm 7 W/m2
04:44 16 °C 13 °C 1012.02 hPa NNW 12 km/h 10 km/h 81% 0 mm 7 W/m2
04:49 16 °C 13 °C 1012.02 hPa N 12 km/h 12 km/h 81% 0 mm 9 W/m2
04:54 16 °C 13 °C 1011.92 hPa N 14 km/h 12 km/h 81% 0 mm 7 W/m2
04:59 16 °C 13 °C 1011.89 hPa N 13 km/h 11 km/h 81% 0 mm 9 W/m2
05:04 16 °C 13 °C 1011.79 hPa NNW 10 km/h 9 km/h 81% 0 mm 11 W/m2
05:09 16 °C 13 °C 1011.75 hPa NNW 11 km/h 9 km/h 81% 0 mm 16 W/m2
05:14 16 °C 13 °C 1011.65 hPa NNW 12 km/h 11 km/h 81% 0 mm 19 W/m2
05:19 16 °C 13 °C 1011.68 hPa NW 13 km/h 12 km/h 82% 0 mm 23 W/m2
05:24 16 °C 13 °C 1011.65 hPa NNW 13 km/h 12 km/h 82% 0 mm 33 W/m2
05:29 16 °C 13 °C 1011.68 hPa NNW 9 km/h 8 km/h 82% 0 mm 28 W/m2
05:34 16 °C 13 °C 1011.65 hPa N 13 km/h 17 km/h 83% 0 mm 25 W/m2
05:39 16 °C 13 °C 1011.58 hPa N 19 km/h 16 km/h 81% 0 mm 25 W/m2
05:44 16 °C 13 °C 1011.51 hPa NNW 15 km/h 11 km/h 81% 0 mm 37 W/m2
05:49 16 °C 13 °C 1011.55 hPa NNW 13 km/h 11 km/h 82% 0 mm 37 W/m2
05:54 16 °C 13 °C 1011.51 hPa N 13 km/h 11 km/h 82% 0 mm 62 W/m2
05:59 16 °C 13 °C 1011.41 hPa NNW 11 km/h 10 km/h 82% 0 mm 100 W/m2
06:04 16 °C 13 °C 1011.45 hPa NNW 11 km/h 8 km/h 82% 0 mm 100 W/m2
06:09 16 °C 13 °C 1011.41 hPa NNW 10 km/h 10 km/h 81% 0 mm 93 W/m2
06:14 16 °C 13 °C 1011.34 hPa N 13 km/h 12 km/h 80% 0 mm 105 W/m2
06:19 16 °C 13 °C 1011.31 hPa N 13 km/h 12 km/h 80% 0 mm 130 W/m2
06:24 17 °C 13 °C 1011.24 hPa N 11 km/h 10 km/h 79% 0 mm 149 W/m2
06:29 17 °C 13 °C 1011.21 hPa NNW 14 km/h 12 km/h 79% 0 mm 156 W/m2
06:34 17 °C 14 °C 1011.21 hPa N 12 km/h 11 km/h 80% 0 mm 165 W/m2
06:39 17 °C 14 °C 1011.11 hPa NNW 12 km/h 10 km/h 81% 0 mm 176 W/m2
06:44 17 °C 14 °C 1011.14 hPa NNW 11 km/h 8 km/h 81% 0 mm 185 W/m2
06:49 17 °C 14 °C 1011.14 hPa NNW 11 km/h 9 km/h 80% 0 mm 195 W/m2
06:54 18 °C 14 °C 1011.18 hPa NNW 10 km/h 8 km/h 79% 0 mm 204 W/m2
06:59 18 °C 14 °C 1011.18 hPa NNW 11 km/h 10 km/h 77% 0 mm 213 W/m2
07:04 18 °C 14 °C 1011.11 hPa NNW 9 km/h 9 km/h 77% 0 mm 225 W/m2
07:09 18 °C 14 °C 1011.07 hPa NNW 9 km/h 7 km/h 77% 0 mm 237 W/m2
07:14 18 °C 14 °C 1011.04 hPa NNW 9 km/h 8 km/h 77% 0 mm 250 W/m2
07:19 18 °C 14 °C 1011.07 hPa NNW 9 km/h 9 km/h 76% 0 mm 295 W/m2
07:24 19 °C 14 °C 1011.07 hPa NNW 9 km/h 7 km/h 74% 0 mm 309 W/m2
07:29 19 °C 14 °C 1011.01 hPa N 11 km/h 10 km/h 73% 0 mm 301 W/m2
07:34 19 °C 14 °C 1010.84 hPa N 12 km/h 10 km/h 73% 0 mm 288 W/m2
07:39 19 °C 14 °C 1010.9 hPa N 11 km/h 10 km/h 73% 0 mm 295 W/m2
07:44 19 °C 14 °C 1010.87 hPa N 13 km/h 11 km/h 73% 0 mm 308 W/m2
07:49 19 °C 14 °C 1010.8 hPa N 16 km/h 14 km/h 73% 0 mm 322 W/m2
07:54 19 °C 14 °C 1010.77 hPa N 17 km/h 15 km/h 72% 0 mm 359 W/m2
07:59 19 °C 14 °C 1010.77 hPa N 17 km/h 14 km/h 73% 0 mm 360 W/m2
08:04 19 °C 14 °C 1010.74 hPa N 16 km/h 14 km/h 72% 0 mm 360 W/m2
08:09 19 °C 14 °C 1010.77 hPa N 16 km/h 13 km/h 72% 0 mm 381 W/m2
08:14 20 °C 15 °C 1010.8 hPa N 13 km/h 12 km/h 74% 0 mm 385 W/m2
08:19 20 °C 15 °C 1010.74 hPa N 13 km/h 12 km/h 74% 0 mm 397 W/m2
08:24 20 °C 15 °C 1010.63 hPa N 14 km/h 12 km/h 73% 0 mm 397 W/m2
08:29 20 °C 15 °C 1010.57 hPa N 14 km/h 12 km/h 72% 0 mm 404 W/m2
08:34 20 °C 15 °C 1010.53 hPa N 16 km/h 14 km/h 72% 0 mm 399 W/m2
08:39 20 °C 15 °C 1010.46 hPa N 15 km/h 12 km/h 73% 0 mm 362 W/m2
08:44 20 °C 15 °C 1010.43 hPa N 12 km/h 11 km/h 74% 0 mm 345 W/m2
08:49 20 °C 15 °C 1010.36 hPa N 8 km/h 8 km/h 73% 0 mm 413 W/m2
08:54 20 °C 15 °C 1010.36 hPa N 7 km/h 7 km/h 71% 0 mm 490 W/m2
08:59 21 °C 15 °C 1010.33 hPa NNE 8 km/h 7 km/h 70% 0 mm 513 W/m2
09:04 21 °C 15 °C 1010.4 hPa ENE 13 km/h 13 km/h 68% 0 mm 543 W/m2
09:09 22 °C 15 °C 1010.43 hPa ENE 15 km/h 11 km/h 64% 0 mm 504 W/m2
09:14 21 °C 14 °C 1010.5 hPa E 16 km/h 11 km/h 63% 0 mm 223 W/m2
09:19 21 °C 14 °C 1010.57 hPa ENE 17 km/h 16 km/h 62% 0 mm 313 W/m2
09:24 21 °C 14 °C 1010.57 hPa E 22 km/h 19 km/h 62% 0 mm 302 W/m2
09:29 21 °C 14 °C 1010.63 hPa E 18 km/h 15 km/h 63% 0 mm 311 W/m2
09:34 21 °C 14 °C 1010.63 hPa E 19 km/h 17 km/h 63% 0 mm 309 W/m2
09:39 21 °C 14 °C 1010.6 hPa E 20 km/h 21 km/h 64% 0 mm 673 W/m2
09:44 21 °C 14 °C 1010.53 hPa E 28 km/h 24 km/h 63% 0 mm 608 W/m2
09:49 21 °C 14 °C 1010.5 hPa E 27 km/h 23 km/h 65% 0 mm 577 W/m2
09:54 21 °C 14 °C 1010.57 hPa E 27 km/h 23 km/h 66% 0 mm 578 W/m2
09:59 21 °C 15 °C 1010.63 hPa E 26 km/h 23 km/h 67% 0 mm 603 W/m2
10:04 21 °C 15 °C 1010.63 hPa E 24 km/h 22 km/h 69% 0 mm 603 W/m2
10:09 21 °C 15 °C 1010.6 hPa E 26 km/h 23 km/h 69% 0 mm 585 W/m2
10:14 21 °C 15 °C 1010.63 hPa E 26 km/h 22 km/h 70% 0 mm 596 W/m2
10:19 21 °C 15 °C 1010.63 hPa E 26 km/h 26 km/h 72% 0 mm 605 W/m2
10:24 21 °C 16 °C 1010.63 hPa E 28 km/h 26 km/h 73% 0 mm 628 W/m2
10:29 20 °C 16 °C 1010.6 hPa E 26 km/h 23 km/h 74% 0 mm 638 W/m2
10:34 20 °C 16 °C 1010.6 hPa E 28 km/h 25 km/h 76% 0 mm 670 W/m2
10:39 20 °C 16 °C 1010.57 hPa E 27 km/h 24 km/h 76% 0 mm 740 W/m2
10:44 20 °C 16 °C 1010.57 hPa E 26 km/h 22 km/h 77% 0 mm 740 W/m2
10:49 20 °C 16 °C 1010.53 hPa E 24 km/h 24 km/h 78% 0 mm 717 W/m2
10:54 20 °C 17 °C 1010.57 hPa ENE 22 km/h 21 km/h 79% 0 mm 752 W/m2
10:59 21 °C 17 °C 1010.57 hPa E 18 km/h 15 km/h 79% 0 mm 752 W/m2
11:04 21 °C 17 °C 1010.6 hPa E 20 km/h 17 km/h 80% 0 mm 773 W/m2
11:09 20 °C 17 °C 1010.63 hPa E 23 km/h 18 km/h 81% 0 mm 642 W/m2
11:14 20 °C 17 °C 1010.57 hPa E 21 km/h 16 km/h 82% 0 mm 642 W/m2
11:19 20 °C 17 °C 1010.6 hPa E 23 km/h 18 km/h 82% 0 mm 555 W/m2
11:24 20 °C 17 °C 1010.53 hPa E 23 km/h 21 km/h 83% 0 mm 272 W/m2
11:29 20 °C 17 °C 1010.5 hPa E 25 km/h 22 km/h 84% 0 mm 355 W/m2
11:34 20 °C 17 °C 1010.5 hPa E 25 km/h 23 km/h 85% 0 mm 399 W/m2
11:39 20 °C 17 °C 1010.5 hPa E 24 km/h 21 km/h 85% 0 mm 341 W/m2
11:44 20 °C 17 °C 1010.46 hPa E 19 km/h 15 km/h 86% 0 mm 281 W/m2
11:49 19 °C 17 °C 1010.4 hPa E 19 km/h 16 km/h 86% 0 mm 299 W/m2
11:54 19 °C 17 °C 1010.43 hPa E 17 km/h 14 km/h 87% 0 mm 301 W/m2
11:59 20 °C 17 °C 1010.33 hPa ENE 18 km/h 16 km/h 87% 0 mm 248 W/m2
12:04 19 °C 17 °C 1010.19 hPa E 20 km/h 17 km/h 87% 0 mm 227 W/m2
12:09 19 °C 17 °C 1010.26 hPa E 24 km/h 22 km/h 87% 0 mm 186 W/m2
12:14 19 °C 17 °C 1010.3 hPa E 23 km/h 22 km/h 87% 0 mm 151 W/m2
12:19 19 °C 17 °C 1010.33 hPa E 23 km/h 22 km/h 88% 0 mm 142 W/m2
12:24 19 °C 17 °C 1010.26 hPa E 24 km/h 22 km/h 88% 0 mm 127 W/m2
12:29 19 °C 17 °C 1010.23 hPa E 19 km/h 17 km/h 89% 0 mm 128 W/m2
12:34 19 °C 17 °C 1010.19 hPa ESE 18 km/h 14 km/h 89% 0 mm 139 W/m2
12:39 19 °C 17 °C 1010.33 hPa ESE 21 km/h 17 km/h 89% 0 mm 172 W/m2
12:44 19 °C 17 °C 1010.43 hPa ESE 19 km/h 16 km/h 89% 0 mm 209 W/m2
12:49 19 °C 17 °C 1010.46 hPa ESE 18 km/h 14 km/h 89% 0 mm 239 W/m2
12:54 19 °C 17 °C 1010.6 hPa ESE 20 km/h 18 km/h 89% 0 mm 237 W/m2
12:59 19 °C 17 °C 1010.74 hPa ESE 20 km/h 17 km/h 90% 0 mm 223 W/m2
13:04 19 °C 17 °C 1010.74 hPa ESE 18 km/h 17 km/h 90% 0 mm 301 W/m2
13:09 19 °C 18 °C 1010.7 hPa ESE 14 km/h 13 km/h 91% 0 mm 492 W/m2
13:14 19 °C 18 °C 1010.7 hPa ESE 17 km/h 15 km/h 91% 0 mm 492 W/m2
13:19 19 °C 18 °C 1010.74 hPa ESE 17 km/h 15 km/h 91% 0 mm 703 W/m2
13:24 19 °C 18 °C 1010.7 hPa ESE 20 km/h 17 km/h 91% 0 mm 489 W/m2
13:29 19 °C 18 °C 1010.7 hPa ESE 19 km/h 15 km/h 91% 0 mm 765 W/m2
13:34 19 °C 18 °C 1010.7 hPa ESE 17 km/h 14 km/h 91% 0 mm 701 W/m2
13:39 19 °C 18 °C 1010.63 hPa ESE 18 km/h 16 km/h 91% 0 mm 671 W/m2
13:44 19 °C 18 °C 1010.7 hPa ESE 17 km/h 14 km/h 90% 0 mm 946 W/m2
13:49 20 °C 18 °C 1010.7 hPa ESE 18 km/h 16 km/h 90% 0 mm 587 W/m2
13:54 19 °C 18 °C 1010.67 hPa ESE 17 km/h 14 km/h 89% 0 mm 1028 W/m2
13:59 20 °C 18 °C 1010.67 hPa ESE 16 km/h 14 km/h 89% 0 mm 441 W/m2
14:04 20 °C 18 °C 1010.6 hPa ESE 15 km/h 13 km/h 89% 0 mm 628 W/m2
14:09 20 °C 18 °C 1010.53 hPa E 14 km/h 12 km/h 88% 0 mm 675 W/m2
14:14 20 °C 18 °C 1010.6 hPa ESE 15 km/h 13 km/h 88% 0 mm 504 W/m2
14:19 19 °C 17 °C 1010.63 hPa E 16 km/h 15 km/h 88% 0 mm 580 W/m2
14:24 19 °C 17 °C 1010.67 hPa ESE 15 km/h 14 km/h 88% 0 mm 580 W/m2
14:29 19 °C 17 °C 1010.57 hPa E 13 km/h 11 km/h 88% 0 mm 323 W/m2
14:34 19 °C 17 °C 1010.53 hPa E 15 km/h 12 km/h 88% 0 mm 167 W/m2
14:39 19 °C 17 °C 1010.53 hPa ESE 13 km/h 11 km/h 89% 0 mm 146 W/m2
14:44 19 °C 17 °C 1010.5 hPa ESE 10 km/h 8 km/h 89% 0 mm 137 W/m2
14:49 19 °C 18 °C 1010.5 hPa SSE 10 km/h 9 km/h 90% 0 mm 86 W/m2
14:54 19 °C 18 °C 1010.46 hPa SSE 15 km/h 14 km/h 90% 0 mm 79 W/m2
14:59 19 °C 18 °C 1010.43 hPa SSE 12 km/h 12 km/h 89% 0 mm 65 W/m2
15:04 19 °C 18 °C 1010.43 hPa SE 9 km/h 11 km/h 90% 0 mm 60 W/m2
15:09 19 °C 18 °C 1010.43 hPa SE 8 km/h 8 km/h 90% 0 mm 54 W/m2
15:14 19 °C 18 °C 1010.46 hPa SE 7 km/h 7 km/h 91% 0 mm 56 W/m2
15:19 19 °C 18 °C 1010.46 hPa SE 7 km/h 8 km/h 91% 0 mm 70 W/m2
15:24 19 °C 18 °C 1010.5 hPa SE 8 km/h 11 km/h 91% 0 mm 74 W/m2
15:29 19 °C 18 °C 1010.53 hPa SE 12 km/h 11 km/h 91% 0 mm 47 W/m2
15:34 19 °C 18 °C 1010.46 hPa SE 8 km/h 9 km/h 91% 0 mm 62 W/m2
15:39 19 °C 18 °C 1010.46 hPa SE 8 km/h 7 km/h 91% 0 mm 69 W/m2
15:44 19 °C 18 °C 1010.46 hPa ESE 10 km/h 9 km/h 91% 0 mm 79 W/m2
15:49 19 °C 18 °C 1010.5 hPa ESE 13 km/h 12 km/h 92% 0 mm 69 W/m2
15:54 19 °C 18 °C 1010.53 hPa SE 10 km/h 7 km/h 92% 0 mm 42 W/m2
15:59 19 °C 18 °C 1010.53 hPa SE 11 km/h 9 km/h 92% 0 mm 33 W/m2
16:04 19 °C 18 °C 1010.57 hPa SSE 15 km/h 15 km/h 92% 0 mm 40 W/m2
16:09 19 °C 17 °C 1010.6 hPa S 23 km/h 20 km/h 92% 0 mm 42 W/m2
16:14 18 °C 17 °C 1010.63 hPa S 23 km/h 22 km/h 92% 0 mm 63 W/m2
16:19 18 °C 17 °C 1010.7 hPa S 22 km/h 19 km/h 92% 0 mm 79 W/m2
16:24 18 °C 17 °C 1010.77 hPa S 22 km/h 20 km/h 92% 0 mm 84 W/m2
16:29 18 °C 17 °C 1010.8 hPa S 24 km/h 19 km/h 92% 0 mm 79 W/m2
16:34 18 °C 17 °C 1010.87 hPa S 20 km/h 17 km/h 92% 0 mm 69 W/m2
16:39 18 °C 17 °C 1010.87 hPa S 22 km/h 18 km/h 92% 0 mm 77 W/m2
16:44 18 °C 17 °C 1010.87 hPa S 20 km/h 17 km/h 92% 0 mm 95 W/m2
16:49 18 °C 17 °C 1010.9 hPa S 22 km/h 19 km/h 92% 0 mm 102 W/m2
16:54 18 °C 17 °C 1010.9 hPa S 16 km/h 14 km/h 93% 0 mm 93 W/m2
16:59 18 °C 17 °C 1010.84 hPa SSW 15 km/h 12 km/h 93% 0 mm 65 W/m2
17:04 18 °C 17 °C 1010.9 hPa S 16 km/h 14 km/h 93% 0.2 mm 86 W/m2
17:09 18 °C 17 °C 1010.9 hPa S 14 km/h 14 km/h 93% 0.41 mm 84 W/m2
17:14 18 °C 17 °C 1010.87 hPa SSW 15 km/h 12 km/h 94% 0.41 mm 84 W/m2
17:19 18 °C 17 °C 1010.84 hPa SSW 13 km/h 10 km/h 95% 0.61 mm 77 W/m2
17:24 18 °C 17 °C 1010.9 hPa SSW 13 km/h 10 km/h 95% 0.79 mm 72 W/m2
17:29 18 °C 17 °C 1010.94 hPa S 15 km/h 12 km/h 95% 0.99 mm 54 W/m2
17:34 18 °C 17 °C 1011.01 hPa SSW 15 km/h 11 km/h 96% 0.99 mm 47 W/m2
17:39 17 °C 17 °C 1011.14 hPa SSW 16 km/h 15 km/h 96% 0.99 mm 25 W/m2
17:44 17 °C 17 °C 1011.21 hPa SSW 19 km/h 15 km/h 96% 0.99 mm 26 W/m2
17:49 17 °C 16 °C 1011.07 hPa SW 18 km/h 15 km/h 96% 0.99 mm 60 W/m2
17:54 17 °C 16 °C 1010.97 hPa SW 20 km/h 15 km/h 96% 1.19 mm 62 W/m2
17:59 17 °C 16 °C 1011.01 hPa SSW 20 km/h 16 km/h 96% 1.19 mm 60 W/m2
18:04 17 °C 16 °C 1011.14 hPa SW 20 km/h 15 km/h 96% 1.19 mm 63 W/m2
18:09 17 °C 16 °C 1011.18 hPa SSW 18 km/h 13 km/h 96% 0.99 mm 81 W/m2
18:14 17 °C 16 °C 1011.31 hPa SW 15 km/h 12 km/h 96% 0.79 mm 53 W/m2
18:19 17 °C 16 °C 1011.48 hPa SSW 20 km/h 17 km/h 96% 0.79 mm 35 W/m2
18:24 16 °C 16 °C 1011.55 hPa SW 22 km/h 17 km/h 96% 0.61 mm 19 W/m2
18:29 16 °C 16 °C 1011.48 hPa SW 18 km/h 14 km/h 96% 0.41 mm 32 W/m2
18:34 17 °C 16 °C 1011.28 hPa SW 20 km/h 13 km/h 95% 0.2 mm 40 W/m2
18:39 16 °C 16 °C 1011.38 hPa SW 18 km/h 13 km/h 95% 0.2 mm 30 W/m2
18:44 16 °C 16 °C 1011.51 hPa SSW 18 km/h 11 km/h 96% 0.2 mm 35 W/m2
18:49 16 °C 16 °C 1011.62 hPa SW 18 km/h 17 km/h 95% 0.2 mm 33 W/m2
18:54 16 °C 16 °C 1011.68 hPa SW 20 km/h 16 km/h 95% 0 mm 37 W/m2
18:59 16 °C 16 °C 1011.68 hPa SW 18 km/h 13 km/h 95% 0 mm 37 W/m2
19:04 16 °C 16 °C 1011.75 hPa SW 19 km/h 14 km/h 95% 0 mm 37 W/m2
19:09 16 °C 15 °C 1011.72 hPa SW 19 km/h 14 km/h 95% 0 mm 39 W/m2
19:14 16 °C 15 °C 1011.79 hPa SW 17 km/h 13 km/h 95% 0 mm 39 W/m2
19:19 16 °C 15 °C 1011.92 hPa SW 16 km/h 13 km/h 95% 0 mm 37 W/m2
19:24 16 °C 15 °C 1011.99 hPa SSW 17 km/h 10 km/h 95% 0 mm 19 W/m2
19:29 16 °C 15 °C 1011.92 hPa WSW 18 km/h 12 km/h 94% 0 mm 30 W/m2
19:34 16 °C 15 °C 1011.85 hPa WSW 20 km/h 12 km/h 94% 0 mm 33 W/m2
19:39 16 °C 15 °C 1012.12 hPa SW 19 km/h 13 km/h 95% 0 mm 28 W/m2
19:44 16 °C 15 °C 1012.12 hPa SSW 8 km/h 6 km/h 95% 0 mm 19 W/m2
19:49 16 °C 15 °C 1012.09 hPa SW 15 km/h 10 km/h 94% 0 mm 14 W/m2
19:54 16 °C 15 °C 1012.19 hPa SW 16 km/h 12 km/h 94% 0 mm 16 W/m2
19:59 16 °C 15 °C 1012.23 hPa SW 16 km/h 10 km/h 94% 0 mm 16 W/m2
20:04 16 °C 15 °C 1012.16 hPa WSW 17 km/h 10 km/h 94% 0 mm 16 W/m2
20:09 16 °C 15 °C 1012.12 hPa SW 16 km/h 11 km/h 94% 0 mm 32 W/m2
20:14 16 °C 15 °C 1012.12 hPa SW 14 km/h 10 km/h 94% 0 mm 33 W/m2
20:19 16 °C 15 °C 1012.26 hPa SW 11 km/h 7 km/h 94% 0 mm 32 W/m2
20:24 16 °C 15 °C 1012.33 hPa SW 13 km/h 11 km/h 94% 0 mm 42 W/m2
20:29 16 °C 15 °C 1012.33 hPa SW 13 km/h 10 km/h 94% 0 mm 42 W/m2
20:34 16 °C 15 °C 1012.36 hPa SW 12 km/h 9 km/h 94% 0 mm 32 W/m2
20:39 16 °C 15 °C 1012.53 hPa WSW 13 km/h 10 km/h 95% 0 mm 25 W/m2
20:44 15 °C 15 °C 1012.53 hPa WSW 13 km/h 12 km/h 95% 0 mm 25 W/m2
20:49 15 °C 15 °C 1012.56 hPa SW 13 km/h 10 km/h 94% 0 mm 23 W/m2
20:54 15 °C 14 °C 1012.6 hPa SW 9 km/h 8 km/h 94% 0 mm 19 W/m2
20:59 15 °C 14 °C 1012.63 hPa WSW 12 km/h 7 km/h 94% 0 mm 26 W/m2
21:04 15 °C 15 °C 1012.6 hPa WSW 15 km/h 10 km/h 94% 0 mm 26 W/m2
21:09 15 °C 15 °C 1012.6 hPa SW 14 km/h 10 km/h 94% 0 mm 25 W/m2
21:14 15 °C 15 °C 1012.63 hPa SSW 13 km/h 9 km/h 94% 0 mm 21 W/m2
21:19 15 °C 15 °C 1012.67 hPa SW 12 km/h 9 km/h 94% 0 mm 12 W/m2
21:24 15 °C 15 °C 1012.67 hPa SW 12 km/h 10 km/h 94% 0 mm 9 W/m2
21:29 16 °C 15 °C 1012.7 hPa S 9 km/h 8 km/h 94% 0 mm 11 W/m2
21:34 16 °C 15 °C 1012.84 hPa SW 13 km/h 11 km/h 94% 0.2 mm 11 W/m2
21:39 16 °C 15 °C 1012.84 hPa WSW 12 km/h 9 km/h 94% 0.2 mm 5 W/m2
21:44 16 °C 15 °C 1012.87 hPa WSW 12 km/h 8 km/h 94% 0.2 mm 0 W/m2
21:49 16 °C 15 °C 1012.94 hPa WSW 11 km/h 8 km/h 94% 0.2 mm 5 W/m2
21:54 16 °C 15 °C 1012.94 hPa WSW 11 km/h 8 km/h 94% 0.2 mm 7 W/m2
21:59 15 °C 15 °C 1012.94 hPa SW 7 km/h 5 km/h 94% 0.2 mm 7 W/m2
22:04 16 °C 15 °C 1013 hPa WSW 10 km/h 8 km/h 94% 0.2 mm 0 W/m2
22:09 15 °C 15 °C 1012.97 hPa WSW 8 km/h 8 km/h 94% 0.2 mm 0 W/m2
22:14 15 °C 15 °C 1013.04 hPa WSW 10 km/h 8 km/h 94% 0.2 mm 0 W/m2
22:19 15 °C 15 °C 1012.97 hPa WSW 11 km/h 9 km/h 94% 0.2 mm 0 W/m2
22:24 15 °C 15 °C 1012.97 hPa WSW 9 km/h 7 km/h 94% 0.2 mm 0 W/m2
22:29 15 °C 15 °C 1013 hPa WSW 14 km/h 8 km/h 94% 0.2 mm 0 W/m2
22:34 15 °C 15 °C 1013.07 hPa WSW 9 km/h 8 km/h 94% 0 mm 0 W/m2
22:39 15 °C 15 °C 1013.17 hPa WSW 7 km/h 7 km/h 94% 0 mm 0 W/m2
22:44 15 °C 15 °C 1013.38 hPa SW 11 km/h 8 km/h 94% 0 mm 0 W/m2
22:49 15 °C 14 °C 1013.44 hPa WSW 11 km/h 7 km/h 94% 0 mm 0 W/m2
22:54 15 °C 14 °C 1013.55 hPa SW 8 km/h 5 km/h 94% 0 mm 0 W/m2
22:59 15 °C 14 °C 1013.51 hPa SW 8 km/h 8 km/h 93% 0 mm 0 W/m2
23:04 15 °C 14 °C 1013.51 hPa SW 13 km/h 8 km/h 93% 0 mm 0 W/m2
23:09 15 °C 14 °C 1013.48 hPa W 9 km/h 7 km/h 93% 0 mm 0 W/m2
23:14 15 °C 14 °C 1013.51 hPa WSW 14 km/h 7 km/h 93% 0 mm 0 W/m2
23:19 16 °C 14 °C 1013.65 hPa SSW 10 km/h 8 km/h 93% 0 mm 0 W/m2
23:24 16 °C 14 °C 1013.68 hPa WSW 10 km/h 7 km/h 92% 0 mm 0 W/m2
23:29 16 °C 14 °C 1013.75 hPa WSW 14 km/h 10 km/h 92% 0 mm 0 W/m2
23:34 16 °C 14 °C 1013.78 hPa WSW 11 km/h 11 km/h 92% 0 mm 0 W/m2
23:39 16 °C 14 °C 1013.68 hPa WSW 7 km/h 6 km/h 92% 0 mm 0 W/m2
23:44 15 °C 14 °C 1013.82 hPa WSW 15 km/h 9 km/h 92% 0 mm 0 W/m2
23:49 15 °C 14 °C 1013.85 hPa WSW 13 km/h 10 km/h 92% 0 mm 0 W/m2
23:54 15 °C 14 °C 1013.82 hPa W 8 km/h 8 km/h 92% 0 mm 0 W/m2
23:59 15 °C 14 °C 1013.82 hPa W 8 km/h 7 km/h 92% 0 mm 0 W/m2
Compliments of Weather Underground - 2 mb